createdAt,value
2018-05-12T08:05:39.997Z,256.67
2018-05-12T08:08:11.297Z,368.67
2018-05-12T08:10:53.532Z,261.62
2018-05-12T08:13:26.547Z,822.58
2018-05-12T08:16:01.295Z,481.20
2018-05-12T08:18:34.771Z,291.17
2018-05-12T08:21:08.948Z,297.05
2018-05-12T08:23:43.111Z,721.20
2018-05-12T08:26:18.773Z,919.37
2018-05-12T08:28:50.020Z,665.08
2018-05-12T08:31:21.675Z,362.98
2018-05-12T08:33:53.800Z,373.58
2018-05-12T08:36:26.074Z,547.55
2018-05-12T08:38:58.193Z,577.73
2018-05-12T08:41:32.877Z,733.65
2018-05-12T08:44:05.296Z,758.90
2018-05-12T08:46:38.410Z,787.53
2018-05-12T08:49:10.632Z,512.70
2018-05-12T08:51:45.003Z,696.17
2018-05-12T08:54:16.874Z,788.80
2018-05-12T08:56:51.953Z,464.63
2018-05-12T08:59:24.431Z,731.40
2018-05-12T09:01:56.814Z,380.17
2018-05-12T09:04:29.937Z,372.17
2018-05-12T09:07:01.857Z,508.87
2018-05-12T09:09:38.095Z,441.90
2018-05-12T09:12:10.718Z,491.30
2018-05-12T09:14:43.435Z,299.73
2018-05-12T09:17:16.514Z,254.27
2018-05-12T09:19:48.473Z,301.63
2018-05-12T09:22:20.514Z,365.67
2018-05-12T09:24:53.877Z,503.47
2018-05-12T09:27:28.273Z,491.93
2018-05-12T09:30:00.433Z,270.37
2018-05-12T09:32:35.352Z,446.83
2018-05-12T09:35:07.978Z,356.73
2018-05-12T09:37:53.650Z,319.93
2018-05-12T09:50:01.459Z,461.07
2018-05-12T10:02:33.036Z,696.40
2018-05-12T10:05:05.284Z,751.43
2018-05-12T10:07:39.757Z,741.87
2018-05-12T10:10:14.052Z,749.37
2018-05-12T10:12:46.311Z,728.50
2018-05-12T10:15:19.955Z,652.17
2018-05-12T10:25:07.874Z,888.10
2018-05-12T10:27:39.136Z,956.47
2018-05-12T10:30:15.774Z,962.00
2018-05-12T10:36:25.012Z,707.83
2018-05-12T10:38:58.170Z,838.67
2018-05-12T10:41:35.222Z,924.33
2018-05-12T10:44:07.739Z,964.33
2018-05-12T10:49:39.135Z,925.40
2018-05-12T10:52:14.711Z,847.27
2018-05-12T10:54:47.350Z,728.35
2018-05-12T10:57:20.037Z,752.37
2018-05-12T10:59:52.753Z,863.53
2018-05-12T11:02:26.957Z,814.95
2018-05-12T11:05:03.102Z,829.08
2018-05-12T11:07:36.133Z,824.70
2018-05-12T11:10:09.395Z,523.25
2018-05-12T11:12:44.101Z,769.05
2018-05-12T11:15:17.502Z,560.42
2018-05-12T11:17:51.474Z,623.85
2018-05-12T11:20:25.057Z,750.25
2018-05-12T11:22:58.014Z,704.45
2018-05-12T11:25:34.572Z,623.17
2018-05-12T11:28:06.341Z,721.75
2018-05-12T11:30:58.100Z,778.20
2018-05-12T11:33:56.696Z,860.45
2018-05-12T11:36:30.936Z,945.70
2018-05-12T11:39:03.729Z,999.87
2018-05-12T11:41:38.714Z,794.25
2018-05-12T13:13:35.601Z,999.90
2018-05-12T13:16:09.321Z,989.53
2018-05-12T13:18:41.582Z,999.90
2018-05-12T13:21:16.035Z,941.03
2018-05-12T13:23:51.257Z,972.10
2018-05-12T13:26:25.028Z,895.50
2018-05-12T13:32:13.803Z,673.47
2018-05-12T13:35:01.336Z,792.70
2018-05-12T13:38:14.945Z,906.85
2018-05-12T13:40:46.603Z,892.58
2018-05-12T13:43:20.000Z,880.95
2018-05-12T13:45:51.820Z,864.97
2018-05-12T13:48:24.465Z,737.50
2018-05-12T13:50:58.360Z,802.75
2018-05-12T13:53:31.549Z,588.22
2018-05-12T13:56:04.465Z,558.12
2018-05-12T13:58:39.362Z,667.35
2018-05-12T14:01:11.742Z,774.70
2018-05-12T14:03:46.319Z,602.90
2018-05-12T14:06:19.440Z,694.90
2018-05-12T14:08:52.624Z,758.53
2018-05-12T14:11:28.446Z,630.80
2018-05-12T14:14:02.038Z,744.78
2018-05-12T14:16:35.122Z,789.35
2018-05-12T14:19:09.799Z,799.38
2018-05-12T14:21:43.463Z,917.62
2018-05-12T14:24:17.504Z,857.58
2018-05-12T14:26:57.683Z,787.88
2018-05-12T14:29:30.944Z,682.00
2018-05-12T14:32:03.421Z,653.22
2018-05-12T14:34:37.630Z,849.58
2018-05-12T16:00:49.657Z,500.17
2018-05-12T16:03:24.114Z,396.33
2018-05-12T16:06:01.153Z,275.67
2018-05-12T16:08:36.161Z,173.80
2018-05-12T16:11:11.055Z,183.17
2018-05-12T16:13:43.337Z,283.00
2018-05-12T16:16:15.677Z,402.77
2018-05-12T16:18:48.775Z,512.80
2018-05-12T16:21:21.405Z,466.07
2018-05-12T16:23:56.556Z,427.17
2018-05-12T16:26:30.798Z,346.83
2018-05-12T16:29:05.316Z,305.50
2018-05-12T16:31:38.984Z,237.57
2018-05-12T16:34:11.918Z,170.30
2018-05-12T18:09:10.494Z,598.73
2018-05-12T18:11:42.893Z,489.50
2018-05-12T18:14:15.131Z,384.63
2018-05-12T18:16:49.680Z,338.80
2018-05-12T18:19:22.531Z,433.67
2018-05-12T18:21:54.257Z,369.00
2018-05-12T18:24:26.436Z,512.27
2018-05-12T18:26:58.600Z,835.57
2018-05-12T18:29:33.051Z,698.50
2018-05-12T18:32:04.900Z,507.97
2018-05-12T18:34:36.781Z,534.03
2018-05-12T18:37:09.614Z,547.07
2018-05-12T18:39:45.407Z,540.83
2018-05-12T18:42:19.854Z,589.63
2018-05-12T18:44:51.813Z,756.43
2018-05-12T18:47:23.754Z,710.43
2018-05-12T18:49:57.292Z,924.23
2018-05-12T18:52:29.261Z,844.63
2018-05-12T18:55:02.997Z,801.30
2018-05-12T18:57:34.976Z,999.90
2018-05-12T19:00:08.889Z,999.90
2018-05-12T19:02:45.729Z,992.07
2018-05-12T19:05:18.116Z,999.43
2018-05-12T19:07:50.735Z,999.90
2018-05-12T19:10:24.850Z,999.90
2018-05-12T19:12:57.094Z,999.90
2018-05-12T19:15:30.900Z,999.90
2018-05-12T19:18:05.496Z,999.90
2018-05-12T19:20:39.158Z,999.90
2018-05-12T19:23:12.593Z,999.90
2018-05-12T19:25:45.558Z,999.90
2018-05-12T19:28:17.397Z,999.90
2018-05-12T19:30:51.255Z,999.90
2018-05-12T19:33:27.037Z,999.90
2018-05-12T19:35:58.874Z,799.17
2018-05-12T19:38:30.891Z,972.57
2018-05-12T19:41:03.432Z,918.13
2018-05-12T19:43:37.941Z,887.70
2018-05-12T19:46:12.794Z,915.93
2018-05-12T19:48:45.733Z,853.83
2018-05-12T19:51:21.678Z,900.33
2018-05-12T19:53:52.894Z,852.80
2018-05-12T19:56:25.860Z,805.50
2018-05-12T19:59:01.495Z,734.30
2018-05-12T20:01:35.114Z,686.80
2018-05-12T20:04:08.796Z,572.47
2018-05-12T20:06:40.835Z,590.47
2018-05-12T20:09:13.037Z,570.13
2018-05-12T20:11:46.641Z,500.13
2018-05-12T20:14:19.634Z,397.97
2018-05-12T20:16:52.434Z,340.17
2018-05-12T20:19:25.803Z,322.83
2018-05-12T20:21:58.835Z,378.43
2018-05-12T20:24:30.832Z,540.97
2018-05-12T20:27:04.208Z,697.63
2018-05-12T20:29:36.559Z,598.97
2018-05-12T20:32:09.733Z,702.47
2018-05-12T20:34:44.598Z,734.00
2018-05-12T20:37:18.497Z,897.57
2018-05-12T20:39:51.835Z,829.07
2018-05-12T20:42:25.961Z,764.00
2018-05-12T20:44:59.351Z,804.73
2018-05-12T20:47:33.296Z,887.50
2018-05-12T20:50:06.553Z,889.67
2018-05-12T20:52:41.014Z,923.20
2018-05-12T20:55:16.221Z,923.43
2018-05-12T20:57:49.388Z,997.50
2018-05-12T21:00:22.695Z,966.67
2018-05-12T21:02:55.480Z,911.53
2018-05-12T21:05:29.774Z,948.20
2018-05-12T21:08:03.363Z,950.50
2018-05-12T21:10:35.993Z,907.77
2018-05-12T21:13:08.916Z,896.13
2018-05-12T21:15:41.134Z,868.03
2018-05-12T21:18:16.174Z,713.53
2018-05-12T21:20:48.755Z,690.90
2018-05-12T21:23:21.339Z,618.23
2018-05-12T21:25:54.277Z,261.27
2018-05-12T21:28:26.533Z,322.97
2018-05-12T21:30:59.590Z,272.97
2018-05-12T22:31:17.219Z,620.07
2018-05-12T22:33:50.506Z,843.37
2018-05-12T22:36:23.535Z,988.80
2018-05-12T22:38:56.079Z,999.90
2018-05-12T22:41:28.155Z,999.90
2018-05-12T22:44:00.523Z,999.90
2018-05-12T22:46:32.515Z,999.90
2018-05-12T22:49:04.978Z,999.90
2018-05-12T22:51:38.178Z,999.90
2018-05-12T22:54:11.597Z,999.90
2018-05-12T22:56:46.520Z,999.90
2018-05-12T22:59:20.167Z,999.90
2018-05-12T23:01:52.519Z,999.90
2018-05-12T23:04:26.578Z,999.90
2018-05-12T23:06:59.263Z,999.90
2018-05-12T23:09:32.081Z,999.90
2018-05-12T23:12:04.878Z,999.90
2018-05-12T23:14:36.978Z,999.90
2018-05-12T23:17:10.318Z,999.90
2018-05-12T23:19:43.080Z,999.90
2018-05-12T23:22:16.638Z,999.90
2018-05-12T23:24:51.146Z,999.90
2018-05-12T23:27:23.620Z,999.90
2018-05-12T23:29:56.023Z,999.90
2018-05-12T23:32:28.998Z,999.90
2018-05-12T23:35:01.282Z,999.90
2018-05-12T23:37:35.580Z,999.90
2018-05-12T23:40:08.523Z,999.90
2018-05-12T23:42:42.257Z,999.90
2018-05-12T23:45:16.183Z,999.90
2018-05-12T23:47:48.717Z,999.90
2018-05-12T23:50:22.122Z,999.90
2018-05-12T23:52:56.243Z,999.90
2018-05-12T23:55:29.597Z,999.90
2018-05-12T23:58:02.022Z,999.90
